Time;durP1;ratioP1;P1;durP2;ratioP2;P2;SDS_P1;SDS_P2;PMS_P1;PMS_P2;Temp;Humidity;BMP_temperature;BMP_pressure;BME280_temperature;BME280_humidity;BME280_pressure;Samples;Min_cycle;Max_cycle;Signal;HPM_P1;HPM_P2
2022/01/27 00:07:42;;;;;;;18.92;9.20;;;2.40;99.90;;;0.62;82.67;100997.56;10396915;28;96541;-77
2022/01/27 00:12:46;;;;;;;22.07;10.30;;;2.50;99.90;;;0.61;82.60;101006.34;10433755;27;96558;-77
2022/01/27 00:17:57;;;;;;;22.67;10.57;;;2.50;99.90;;;0.60;82.65;100999.41;10414169;27;96660;-77
2022/01/27 00:23:00;;;;;;;21.85;10.32;;;2.50;99.90;;;0.60;82.51;100983.72;10410637;27;97338;-77
2022/01/27 00:28:05;;;;;;;21.23;11.13;;;2.40;99.90;;;0.54;82.10;100986.69;10417906;27;96534;-77
2022/01/27 00:33:08;;;;;;;23.70;10.43;;;2.40;99.90;;;0.48;82.08;100989.59;10414595;28;96656;-77
2022/01/27 00:38:12;;;;;;;21.93;10.50;;;2.40;99.90;;;0.40;82.70;100987.41;10389488;27;96581;-77
2022/01/27 00:43:14;;;;;;;20.77;9.27;;;2.30;99.90;;;0.39;82.79;100992.75;10422477;27;96595;-77
2022/01/27 00:48:18;;;;;;;23.27;10.60;;;2.30;99.90;;;0.40;83.07;100983.97;10431146;27;96604;-79
2022/01/27 00:58:46;;;;;;;21.30;10.40;;;2.30;99.90;;;0.39;83.30;100987.50;10383753;27;96607;-77
2022/01/27 01:03:53;;;;;;;25.80;10.67;;;2.30;99.90;;;0.39;83.65;100982.28;10374601;28;96510;-77
2022/01/27 01:30:08;;;;;;;23.50;10.35;;;2.30;99.90;;;0.32;82.94;100966.09;10415162;28;97583;-77
2022/01/27 01:35:12;;;;;;;22.53;10.97;;;2.20;99.90;;;0.32;83.16;100960.00;10399888;27;96685;-77
2022/01/27 01:40:17;;;;;;;24.67;10.73;;;2.20;99.90;;;0.33;82.87;100961.69;10383386;27;96561;-77
2022/01/27 01:45:21;;;;;;;25.27;10.93;;;2.20;99.90;;;0.36;81.90;100959.78;10386781;27;96523;-77
2022/01/27 01:50:24;;;;;;;22.00;9.93;;;2.20;99.90;;;0.37;81.83;100958.84;10415010;28;96442;-77
2022/01/27 01:55:29;;;;;;;19.60;9.17;;;2.30;99.90;;;0.39;81.20;100950.91;10410463;27;97886;-77
2022/01/27 02:00:32;;;;;;;20.20;9.40;;;2.20;99.90;;;0.39;80.93;100961.34;10412606;27;96699;-77
2022/01/27 02:05:41;;;;;;;17.57;8.37;;;2.20;99.90;;;0.39;80.00;100956.13;10413148;27;96533;-76
2022/01/27 02:22:04;;;;;;;21.93;9.73;;;2.20;99.90;;;0.28;79.21;100929.72;10376720;27;96699;-77
2022/01/27 02:27:07;;;;;;;21.57;9.70;;;2.20;99.90;;;0.24;78.88;100914.22;10367528;27;96694;-77
2022/01/27 02:32:13;;;;;;;20.20;9.50;;;2.10;99.90;;;0.25;79.47;100902.00;10375585;27;98740;-77
2022/01/27 02:37:16;;;;;;;21.53;9.40;;;2.10;99.90;;;0.23;78.86;100902.06;10396432;27;96524;-77
2022/01/27 02:42:36;;;;;;;16.23;7.27;;;2.10;99.90;;;0.23;78.91;100907.28;10398606;28;96642;-77
2022/01/27 02:47:39;;;;;;;18.33;8.87;;;2.10;99.90;;;0.26;78.83;100909.75;10420602;27;96633;-77
2022/01/27 02:52:42;;;;;;;22.57;10.40;;;2.10;99.90;;;0.30;79.00;100893.88;10410204;28;96491;-77
2022/01/27 02:57:45;;;;;;;22.13;10.87;;;2.10;99.90;;;0.30;78.54;100899.97;10421482;27;96585;-77
2022/01/27 03:02:47;;;;;;;19.07;9.80;;;2.20;99.90;;;0.30;78.59;100913.06;10392868;27;96551;-77
2022/01/27 03:07:51;;;;;;;20.53;10.00;;;2.20;99.90;;;0.31;78.28;100911.28;10407157;27;96622;-77
2022/01/27 03:12:59;;;;;;;22.53;11.33;;;2.10;99.90;;;0.28;78.39;100916.66;10392272;28;97978;-78
2022/01/27 03:18:02;;;;;;;21.40;10.03;;;2.20;99.90;;;0.27;78.36;100910.59;10447739;27;96582;-77
2022/01/27 03:23:06;;;;;;;20.20;10.77;;;2.10;99.90;;;0.29;78.39;100921.78;10426625;27;96508;-78
2022/01/27 03:28:11;;;;;;;21.53;10.30;;;2.10;99.90;;;0.29;78.69;100907.88;10392628;28;96665;-77
2022/01/27 03:33:14;;;;;;;25.40;11.87;;;2.10;99.90;;;0.29;78.59;100905.25;10399132;28;96582;-77
2022/01/27 03:38:17;;;;;;;24.67;10.47;;;2.10;99.90;;;0.28;78.55;100900.97;10409772;27;96626;-77
2022/01/27 03:43:19;;;;;;;30.93;12.90;;;2.10;99.90;;;0.31;78.80;100882.53;10403050;28;96657;-77
2022/01/27 03:48:22;;;;;;;57.93;29.83;;;2.10;99.90;;;0.28;78.69;100882.66;10432107;27;96529;-78
2022/01/27 03:53:25;;;;;;;24.00;11.80;;;2.20;99.90;;;0.31;78.43;100891.19;10401839;28;96512;-77
2022/01/27 03:58:29;;;;;;;24.43;11.60;;;2.20;99.90;;;0.31;78.64;100895.59;10377953;28;96656;-76
2022/01/27 04:03:36;;;;;;;28.73;12.23;;;2.10;99.90;;;0.31;77.96;100901.66;10359310;28;96522;-76
2022/01/27 04:08:39;;;;;;;27.67;12.87;;;2.20;99.90;;;0.31;78.19;100890.34;10401307;27;96681;-76
2022/01/27 04:13:42;;;;;;;23.83;11.63;;;2.20;99.90;;;0.30;77.81;100886.91;10413366;27;98252;-76
2022/01/27 04:18:46;;;;;;;23.23;11.00;;;2.10;99.90;;;0.29;77.97;100876.50;10374607;28;96602;-76
2022/01/27 04:23:50;;;;;;;24.30;11.30;;;2.10;99.90;;;0.26;77.73;100875.75;10365838;27;96760;-77
2022/01/27 04:28:54;;;;;;;23.87;11.10;;;2.10;99.90;;;0.25;77.62;100887.16;10418088;28;96437;-76
2022/01/27 04:33:57;;;;;;;24.20;11.67;;;2.10;99.90;;;0.27;77.70;100887.06;10396293;27;96488;-76
2022/01/27 04:39:11;;;;;;;22.50;11.90;;;2.10;99.90;;;0.32;77.51;100890.28;10395587;27;96626;-76
2022/01/27 04:49:23;;;;;;;21.70;10.30;;;2.20;99.90;;;0.38;77.48;100883.84;10410726;27;96586;-76
2022/01/27 04:54:33;;;;;;;24.13;12.30;;;2.20;99.90;;;0.43;77.07;100882.66;10392351;27;96754;-76
2022/01/27 04:59:40;;;;;;;28.70;12.20;;;2.20;99.90;;;0.45;77.01;100882.56;10417320;28;96555;-77
2022/01/27 05:04:46;;;;;;;22.97;10.37;;;2.30;99.90;;;0.47;76.63;100892.00;10379869;27;96454;-77
2022/01/27 05:09:56;;;;;;;21.93;11.23;;;2.30;99.90;;;0.50;76.28;100885.78;10398587;27;96579;-76
2022/01/27 05:14:59;;;;;;;24.00;11.90;;;2.30;99.90;;;0.51;76.51;100887.47;10399718;27;97005;-76
2022/01/27 05:20:03;;;;;;;20.23;10.63;;;2.30;99.90;;;0.53;76.22;100885.59;10356739;28;96488;-77
2022/01/27 05:25:07;;;;;;;24.40;12.00;;;2.30;99.90;;;0.55;76.26;100891.59;10436607;27;96584;-76
2022/01/27 05:30:10;;;;;;;19.23;10.33;;;2.40;99.90;;;0.55;76.09;100875.91;10412701;27;96596;-76
2022/01/27 05:35:13;;;;;;;19.23;10.13;;;2.30;99.90;;;0.54;76.20;100866.38;10390961;27;96652;-76
2022/01/27 05:40:16;;;;;;;21.20;10.13;;;2.40;99.90;;;0.53;76.00;100877.75;10394261;27;98397;-76
2022/01/27 05:45:20;;;;;;;21.33;10.23;;;2.30;99.90;;;0.53;75.98;100851.59;10413461;27;97768;-77
2022/01/27 05:50:23;;;;;;;20.13;9.87;;;2.30;99.90;;;0.53;76.22;100857.66;10372769;28;96471;-76
2022/01/27 05:55:26;;;;;;;21.10;9.90;;;2.30;99.90;;;0.57;75.65;100863.56;10395145;27;96691;-76
2022/01/27 06:00:31;;;;;;;19.70;10.50;;;2.40;99.90;;;0.57;75.74;100855.72;10379758;28;98108;-76
2022/01/27 06:05:34;;;;;;;21.40;10.83;;;2.40;99.90;;;0.60;75.65;100860.78;10410507;27;96893;-76
2022/01/27 06:10:37;;;;;;;22.80;10.40;;;2.40;99.90;;;0.61;75.49;100872.09;10424304;27;96590;-76
2022/01/27 06:15:39;;;;;;;24.50;10.37;;;2.40;99.90;;;0.62;76.07;100866.78;10401980;28;96523;-76
2022/01/27 06:20:45;;;;;;;23.57;10.90;;;2.40;99.90;;;0.63;75.97;100876.28;10419717;27;96611;-76
2022/01/27 06:25:48;;;;;;;21.30;11.23;;;2.50;99.90;;;0.64;75.79;100871.91;10419312;27;96648;-76
2022/01/27 06:30:50;;;;;;;23.43;9.77;;;2.50;99.90;;;0.64;76.07;100877.13;10395637;27;96627;-77
2022/01/27 06:35:53;;;;;;;24.70;11.73;;;2.50;99.90;;;0.67;76.24;100892.66;10378260;28;96626;-77
2022/01/27 06:40:56;;;;;;;24.03;10.50;;;2.50;99.90;;;0.67;76.06;100896.13;10402343;27;96539;-77
2022/01/27 06:45:59;;;;;;;25.50;11.37;;;2.50;99.90;;;0.68;76.12;100900.41;10391954;28;96903;-78
2022/01/27 06:51:04;;;;;;;26.80;12.13;;;2.50;99.90;;;0.70;76.30;100903.78;10384984;27;96533;-81
2022/01/27 06:56:07;;;;;;;24.77;11.57;;;2.50;99.90;;;0.72;76.40;100901.94;10404719;27;96661;-76
2022/01/27 07:01:10;;;;;;;26.53;12.63;;;2.50;99.90;;;0.73;76.58;100905.41;10405772;27;98382;-76
2022/01/27 07:06:14;;;;;;;25.73;11.40;;;2.50;99.90;;;0.74;76.14;100896.63;10402931;27;98496;-76
2022/01/27 07:11:17;;;;;;;23.13;11.43;;;2.60;99.90;;;0.74;76.36;100905.31;10432036;27;96638;-76
2022/01/27 07:16:20;;;;;;;21.90;11.07;;;2.60;99.90;;;0.74;76.35;100894.00;10395719;27;98511;-76
2022/01/27 07:21:23;;;;;;;21.17;11.60;;;2.50;99.90;;;0.75;76.46;100883.44;10389587;28;96558;-75
2022/01/27 07:26:26;;;;;;;24.53;11.87;;;2.60;99.90;;;0.74;76.52;100871.28;10421118;27;96672;-76
2022/01/27 07:31:30;;;;;;;22.23;10.90;;;2.60;99.90;;;0.78;76.48;100869.31;10425149;27;96602;-77
2022/01/27 07:36:33;;;;;;;24.40;11.80;;;2.60;99.90;;;0.82;76.21;100870.84;10413158;27;96575;-76
2022/01/27 07:41:35;;;;;;;23.30;11.63;;;2.60;99.90;;;0.87;76.33;100875.81;10411225;27;96969;-77
2022/01/27 07:46:39;;;;;;;23.00;12.60;;;2.70;99.90;;;0.91;76.01;100874.72;10412672;27;96525;-79
2022/01/27 07:51:41;;;;;;;20.37;10.20;;;2.70;99.90;;;0.96;75.84;100875.25;10425300;27;96648;-75
2022/01/27 07:56:44;;;;;;;25.17;12.23;;;2.80;99.90;;;0.99;76.07;100855.00;10441558;27;97594;-84
2022/01/27 08:01:47;;;;;;;24.17;11.07;;;2.80;99.90;;;1.07;75.86;100858.00;10416520;28;96681;-76
2022/01/27 08:06:50;;;;;;;26.83;12.00;;;2.90;99.90;;;1.14;75.20;100863.75;10391762;27;96584;-79
2022/01/27 08:11:53;;;;;;;23.13;12.47;;;2.90;99.90;;;1.18;75.15;100857.38;10406496;27;97987;-75
2022/01/27 08:16:56;;;;;;;24.30;12.47;;;3.00;99.90;;;1.17;75.14;100847.81;10417238;27;96556;-83
2022/01/27 08:21:59;;;;;;;23.90;11.93;;;3.00;99.90;;;1.18;74.72;100854.75;10406290;28;96459;-83
2022/01/27 08:27:05;;;;;;;27.40;14.00;;;3.00;99.90;;;1.21;75.18;100859.81;10375112;27;96567;-77
2022/01/27 08:37:47;;;;;;;22.93;10.57;;;3.10;99.90;;;1.28;74.54;100866.34;10433262;27;96940;-75
2022/01/27 08:42:50;;;;;;;22.63;11.20;;;3.10;99.90;;;1.35;74.01;100848.50;10417497;27;96660;-75
2022/01/27 08:47:56;;;;;;;28.70;11.77;;;3.10;99.90;;;1.43;73.67;100850.63;10432109;27;96541;-76
2022/01/27 08:52:59;;;;;;;23.90;10.80;;;3.20;99.90;;;1.54;73.96;100842.97;10421531;27;97566;-76
2022/01/27 08:58:02;;;;;;;22.73;11.23;;;3.30;99.90;;;1.70;73.25;100843.72;10411471;27;96668;-76
2022/01/27 09:03:04;;;;;;;25.10;11.80;;;3.50;99.90;;;1.70;72.55;100864.69;10393099;27;97147;-80
2022/01/27 09:08:07;;;;;;;24.67;11.63;;;3.50;99.90;;;1.74;72.23;100860.94;10407455;27;98345;-79
2022/01/27 09:13:12;;;;;;;20.73;10.47;;;3.50;99.90;;;1.86;72.05;100841.00;10404873;27;96579;-78
2022/01/27 09:18:15;;;;;;;23.20;10.67;;;3.60;99.90;;;2.02;71.75;100849.56;10391235;27;96835;-77
2022/01/27 09:23:18;;;;;;;22.60;10.60;;;3.70;99.90;;;2.25;70.92;100849.88;10415263;28;96427;-78
2022/01/27 09:28:21;;;;;;;21.07;11.07;;;3.90;99.90;;;2.39;69.89;100848.03;10386158;27;96644;-77
2022/01/27 09:33:25;;;;;;;24.20;11.73;;;4.10;99.90;;;2.46;69.98;100839.75;10409169;27;96612;-80
2022/01/27 09:38:28;;;;;;;21.63;10.63;;;4.20;99.90;;;2.55;69.75;100850.50;10382590;28;96607;-78
2022/01/27 09:43:30;;;;;;;19.53;9.50;;;4.20;99.90;;;2.65;68.85;100850.75;10398331;27;98243;-78
2022/01/27 09:48:40;;;;;;;21.43;11.10;;;4.30;99.90;;;2.61;68.25;100857.13;10415228;27;96540;-78
2022/01/27 09:53:43;;;;;;;22.47;10.57;;;4.40;99.90;;;2.51;69.03;100851.63;10380590;28;97076;-77
2022/01/27 09:58:46;;;;;;;21.20;10.27;;;4.30;99.90;;;2.40;69.34;100859.38;10420497;27;96548;-77
2022/01/27 10:04:18;;;;;;;21.73;10.30;;;4.20;99.90;;;2.43;69.29;100859.16;10415075;27;98062;-77
2022/01/27 10:09:26;;;;;;;18.90;9.47;;;4.20;99.90;;;2.60;69.49;100832.69;10410519;27;96671;-78
2022/01/27 10:14:36;;;;;;;21.93;9.50;;;4.30;99.90;;;2.84;67.74;100819.69;10416681;27;97903;-78
2022/01/27 10:19:39;;;;;;;29.20;12.23;;;4.50;99.90;;;2.92;67.72;100803.44;10422191;27;97350;-78
2022/01/27 10:24:42;;;;;;;20.03;9.57;;;4.60;99.90;;;3.31;67.52;100791.16;10396269;28;96615;-78
2022/01/27 10:30:36;;;;;;;17.10;9.70;;;4.90;99.90;;;4.07;66.46;100771.69;10364994;27;96790;-78
2022/01/27 10:35:15;;;;;;;15.27;8.20;;;5.40;99.90;;;4.88;64.07;100774.34;10369172;28;97217;-79
2022/01/27 10:40:42;;;;;;;18.40;9.57;;;6.10;99.90;;;5.29;61.10;100765.88;10420485;28;96465;-79
2022/01/27 10:46:21;;;;;;;18.20;9.20;;;6.60;99.40;;;5.79;57.71;100729.38;10391163;28;97081;-79
2022/01/27 10:51:29;;;;;;;14.13;7.93;;;7.10;96.30;;;6.27;57.98;100739.56;10397117;27;96930;-79
2022/01/27 10:56:39;;;;;;;15.27;8.60;;;7.50;94.20;;;6.86;55.86;100722.28;10399147;28;97232;-79
2022/01/27 11:01:46;;;;;;;15.93;7.97;;;8.00;92.80;;;7.23;53.48;100707.56;10400787;28;96724;-79
2022/01/27 11:06:55;;;;;;;13.00;6.97;;;8.30;90.50;;;7.21;50.65;100709.53;10406826;27;97434;-79
2022/01/27 11:11:58;;;;;;;14.20;7.80;;;8.50;82.10;;;6.82;51.56;100710.31;10386245;28;96941;-79
2022/01/27 11:17:06;;;;;;;15.93;7.90;;;8.20;78.70;;;6.30;52.55;100698.88;10401153;28;96834;-79
2022/01/27 11:22:25;;;;;;;16.03;8.10;;;7.80;78.10;;;6.23;54.21;100697.69;10406406;28;96535;-78
2022/01/27 11:27:34;;;;;;;16.63;8.57;;;7.70;79.20;;;6.44;54.19;100691.47;10397596;28;96534;-78
2022/01/27 11:33:01;;;;;;;17.40;9.13;;;7.90;80.20;;;6.37;53.20;100673.66;10388084;28;96608;-79
2022/01/27 11:38:24;;;;;;;17.70;9.37;;;7.80;77.70;;;6.07;54.95;100669.97;10391240;28;96662;-78
2022/01/27 11:43:38;;;;;;;19.17;10.00;;;7.60;79.70;;;5.60;54.68;100672.03;10414938;28;98069;-77
2022/01/27 11:48:42;;;;;;;19.20;10.30;;;7.40;78.70;;;5.19;56.66;100677.13;10401673;27;96689;-77
2022/01/27 11:53:49;;;;;;;23.60;11.63;;;7.00;80.00;;;4.83;57.26;100674.63;10441246;27;96479;-77
2022/01/27 11:58:56;;;;;;;20.10;10.77;;;6.70;80.90;;;4.70;58.47;100673.91;10414008;28;97003;-77
2022/01/27 12:04:07;;;;;;;21.20;9.87;;;6.50;82.20;;;4.63;58.86;100679.78;10408459;28;96485;-77
2022/01/27 12:09:19;;;;;;;20.90;11.37;;;6.40;83.10;;;4.61;59.07;100681.66;10399947;28;96781;-77
2022/01/27 12:14:36;;;;;;;18.50;9.63;;;6.30;83.80;;;4.50;58.88;100670.19;10395035;27;96916;-77
2022/01/27 12:19:53;;;;;;;22.70;11.80;;;6.30;83.80;;;4.39;59.26;100659.63;10395189;27;96605;-77
2022/01/27 12:25:00;;;;;;;20.93;11.30;;;6.20;84.50;;;4.31;59.66;100654.09;10401735;27;96535;-75
2022/01/27 12:30:07;;;;;;;22.93;10.70;;;6.10;85.00;;;4.32;59.83;100640.03;10409732;28;98477;-76
2022/01/27 12:35:19;;;;;;;25.83;11.00;;;6.10;85.70;;;4.37;60.39;100629.97;10366333;28;96664;-75
2022/01/27 12:40:26;;;;;;;20.83;10.03;;;6.10;86.10;;;4.33;59.95;100615.38;10416843;28;96488;-76
2022/01/27 12:45:32;;;;;;;21.83;10.57;;;6.10;86.00;;;4.26;59.99;100614.19;10416159;27;98493;-76
2022/01/27 12:50:37;;;;;;;22.17;11.37;;;6.00;86.10;;;4.17;60.51;100599.91;10457558;27;96541;-77
2022/01/27 12:55:43;;;;;;;23.77;12.20;;;6.00;86.80;;;4.18;61.06;100571.81;10415559;27;97130;-78
2022/01/27 13:00:51;;;;;;;22.37;11.07;;;6.00;87.40;;;4.25;61.16;100573.84;10406346;28;96560;-77
2022/01/27 13:05:55;;;;;;;21.97;11.07;;;6.00;87.80;;;4.25;60.78;100558.06;10399679;28;96532;-78
2022/01/27 13:11:08;;;;;;;24.83;12.10;;;6.00;87.50;;;4.22;61.13;100560.13;10399240;28;96602;-78
2022/01/27 13:16:18;;;;;;;24.30;11.63;;;6.00;87.70;;;4.26;61.21;100558.94;10398163;28;96564;-78
2022/01/27 13:21:31;;;;;;;23.63;11.90;;;6.10;88.20;;;4.30;61.40;100540.13;10364863;27;97127;-78
2022/01/27 13:26:34;;;;;;;89.27;41.50;;;6.10;88.50;;;4.40;61.49;100526.28;10423833;27;98059;-78
2022/01/27 13:31:38;;;;;;;27.60;12.43;;;6.20;88.70;;;4.44;61.08;100522.47;10405890;28;97094;-77
2022/01/27 13:37:01;;;;;;;25.20;12.30;;;6.30;88.50;;;4.47;60.75;100525.66;10412636;28;96842;-79
2022/01/27 13:42:08;;;;;;;29.80;14.93;;;6.20;87.60;;;4.43;60.25;100508.44;10406308;27;96569;-77
2022/01/27 13:47:11;;;;;;;32.37;14.20;;;6.30;87.60;;;4.36;60.23;100498.53;10386474;28;96607;-77
2022/01/27 13:52:16;;;;;;;41.17;21.00;;;6.20;87.20;;;4.30;60.70;100503.31;10385221;28;96466;-77
2022/01/27 13:57:36;;;;;;;31.97;16.33;;;6.10;87.50;;;4.28;60.62;100485.97;10389394;28;96489;-77
2022/01/27 14:02:43;;;;;;;28.17;14.33;;;6.10;87.60;;;4.23;60.88;100486.34;10419908;27;97563;-78
2022/01/27 14:07:58;;;;;;;30.43;14.73;;;6.10;87.70;;;4.22;61.00;100482.03;10429626;27;96638;-76
2022/01/27 14:13:17;;;;;;;29.70;14.33;;;6.00;88.20;;;4.23;60.83;100482.88;10427997;27;96565;-78
2022/01/27 14:18:21;;;;;;;40.57;19.70;;;6.10;88.00;;;4.25;60.74;100486.19;10411968;27;96529;-77
2022/01/27 14:24:09;;;;;;;41.63;17.63;;;6.10;87.90;;;4.30;60.47;100473.53;10393903;27;96735;-77
2022/01/27 14:29:11;;;;;;;29.37;14.17;;;6.10;87.80;;;4.33;60.57;100465.41;10379563;28;97225;-76
2022/01/27 14:34:40;;;;;;;68.37;21.20;;;6.10;87.80;;;4.28;60.67;100444.72;10391316;27;98027;-76
2022/01/27 14:39:43;;;;;;;35.07;16.10;;;6.10;88.00;;;4.24;60.48;100442.44;10342158;28;96974;-76
2022/01/27 14:44:46;;;;;;;44.73;17.93;;;6.10;87.80;;;4.22;60.74;100449.63;10332212;28;96648;-77
2022/01/27 14:49:52;;;;;;;41.67;17.53;;;6.10;88.00;;;4.16;60.49;100440.44;10344295;28;96647;-76
2022/01/27 14:54:55;;;;;;;98.97;33.70;;;6.00;87.90;;;4.10;61.03;100434.81;10358759;28;96951;-77
2022/01/27 15:00:17;;;;;;;80.93;33.97;;;5.90;88.00;;;4.02;61.33;100427.53;10358573;28;96813;-76
2022/01/27 15:05:20;;;;;;;42.63;18.70;;;5.90;88.30;;;3.94;61.75;100416.75;10337827;28;97505;-76
2022/01/27 15:10:23;;;;;;;41.17;18.53;;;5.80;89.30;;;3.83;62.05;100412.34;10336331;28;96567;-76
2022/01/27 15:20:47;;;;;;;94.87;46.80;;;5.70;89.30;;;3.55;63.15;100424.16;10334684;28;96612;-76
2022/01/27 15:25:51;;;;;;;64.97;24.10;;;5.60;89.60;;;3.40;63.91;100417.44;10347561;28;96710;-76
2022/01/27 15:30:56;;;;;;;106.63;41.17;;;5.40;90.10;;;3.35;65.15;100401.19;10338712;28;96584;-76
2022/01/27 15:36:02;;;;;;;94.60;32.80;;;5.30;90.70;;;3.28;66.09;100400.81;10358927;28;98299;-76
2022/01/27 15:41:07;;;;;;;64.60;26.27;;;5.20;91.30;;;3.18;66.31;100411.19;10393120;28;96861;-76
2022/01/27 15:46:11;;;;;;;41.60;20.70;;;5.20;91.80;;;3.08;66.98;100409.38;10429830;27;96607;-76
2022/01/27 15:51:17;;;;;;;62.20;28.60;;;5.10;92.30;;;2.94;67.29;100392.03;10385367;28;96556;-76
2022/01/27 15:56:21;;;;;;;51.27;23.47;;;4.90;92.50;;;2.80;67.87;100387.78;10392005;27;98072;-76
2022/01/27 16:01:24;;;;;;;54.10;24.93;;;4.80;93.30;;;2.75;68.31;100382.03;10404930;27;96612;-76
2022/01/27 16:06:28;;;;;;;62.90;27.50;;;4.80;93.60;;;2.65;68.26;100381.88;10416575;27;97748;-76
2022/01/27 16:11:46;;;;;;;64.33;31.00;;;4.70;93.90;;;2.53;68.80;100385.41;10378929;27;96817;-80
2022/01/27 16:16:49;;;;;;;41.23;22.20;;;4.60;94.20;;;2.41;68.73;100383.69;10398997;27;97622;-77
2022/01/27 16:21:52;;;;;;;51.60;25.07;;;4.50;94.70;;;2.29;69.11;100379.31;10414221;28;97998;-77
2022/01/27 16:26:55;;;;;;;45.23;21.57;;;4.40;95.10;;;2.17;69.75;100370.56;10389816;28;98580;-79
2022/01/27 16:31:58;;;;;;;39.10;16.33;;;4.30;95.70;;;2.03;69.99;100378.53;10410138;28;96519;-77
2022/01/27 16:37:02;;;;;;;52.20;22.37;;;4.20;96.10;;;1.89;70.36;100363.81;10389151;27;98889;-78
2022/01/27 16:42:06;;;;;;;47.63;22.70;;;4.00;96.40;;;1.72;70.86;100358.91;10402665;28;97334;-77
2022/01/27 16:47:12;;;;;;;64.33;24.77;;;3.90;96.80;;;1.52;71.02;100363.75;10393581;28;97904;-77
2022/01/27 16:52:15;;;;;;;51.07;21.70;;;3.70;96.80;;;1.33;71.74;100358.94;10387016;28;98190;-77
2022/01/27 16:57:18;;;;;;;57.60;25.47;;;3.50;97.80;;;1.15;72.79;100344.50;10410841;27;96496;-78
2022/01/27 17:02:21;;;;;;;54.60;22.77;;;3.30;99.60;;;0.98;73.73;100329.94;10416225;28;96497;-77
2022/01/27 17:07:25;;;;;;;74.13;26.83;;;3.20;99.90;;;0.82;73.89;100346.75;10400047;28;96541;-79
2022/01/27 17:12:29;;;;;;;80.90;29.50;;;3.00;99.90;;;0.61;74.21;100343.78;10411123;27;97583;-77
2022/01/27 17:17:32;;;;;;;62.20;26.53;;;2.80;99.90;;;0.39;74.20;100334.72;10393792;28;96610;-78
2022/01/27 17:22:36;;;;;;;80.17;29.47;;;2.70;99.90;;;0.21;74.93;100341.13;10412919;28;96556;-78
2022/01/27 17:27:41;;;;;;;90.23;32.00;;;2.50;99.90;;;0.04;75.56;100336.97;10389427;27;97121;-77
2022/01/27 17:32:46;;;;;;;72.97;27.60;;;2.30;99.90;;;-0.10;76.32;100350.94;10396043;28;97216;-77
2022/01/27 17:37:50;;;;;;;47.63;20.73;;;2.20;99.90;;;-0.20;77.46;100357.66;10415396;27;96609;-77
2022/01/27 17:42:58;;;;;;;58.13;24.37;;;2.00;99.90;;;-0.29;78.04;100359.06;10363226;28;98610;-77
2022/01/27 17:48:01;;;;;;;55.10;21.90;;;1.90;99.90;;;-0.36;78.30;100354.28;10412348;28;96506;-77
2022/01/27 17:53:04;;;;;;;62.20;25.00;;;1.80;99.90;;;-0.48;78.60;100347.22;10411926;28;96605;-77
2022/01/27 17:58:07;;;;;;;65.77;27.47;;;1.70;99.90;;;-0.55;79.29;100342.38;10410973;27;97270;-76
2022/01/27 18:03:10;;;;;;;47.70;21.57;;;1.70;99.90;;;-0.54;79.46;100338.00;10396786;27;96919;-78
2022/01/27 18:08:13;;;;;;;199.80;56.60;;;1.60;99.90;;;-0.49;79.86;100335.94;10355501;28;96749;-77
2022/01/27 18:13:18;;;;;;;120.67;40.60;;;1.70;99.90;;;-0.44;79.86;100331.28;10380344;28;96474;-77
2022/01/27 18:18:21;;;;;;;117.03;36.03;;;1.70;99.90;;;-0.33;80.30;100331.47;10406794;27;96504;-77
2022/01/27 18:23:23;;;;;;;61.37;24.10;;;1.80;99.90;;;-0.28;80.29;100308.50;10420427;28;96954;-77
2022/01/27 18:28:26;;;;;;;61.90;26.43;;;1.80;99.90;;;-0.16;80.63;100316.50;10377391;28;96568;-78
2022/01/27 18:33:30;;;;;;;73.73;30.07;;;1.90;99.90;;;-0.09;80.45;100309.97;10412564;27;97290;-77
2022/01/27 18:38:33;;;;;;;61.67;25.47;;;2.00;99.90;;;-0.01;80.31;100316.38;10419196;28;96849;-76
2022/01/27 18:43:38;;;;;;;79.67;32.37;;;2.00;99.90;;;0.09;80.58;100300.94;10417615;28;96602;-76
2022/01/27 18:48:41;;;;;;;67.90;26.70;;;2.10;99.90;;;0.18;80.35;100299.50;10391160;27;96449;-76
2022/01/27 18:53:44;;;;;;;34.80;17.07;;;2.20;99.90;;;0.42;80.84;100290.09;10394645;28;97347;-78
2022/01/27 18:58:47;;;;;;;32.07;14.83;;;2.30;99.90;;;0.76;79.84;100285.22;10424313;27;96697;-78
2022/01/27 19:03:50;;;;;;;32.10;15.10;;;2.60;99.90;;;1.05;78.67;100273.63;10386881;27;96742;-78
2022/01/27 19:08:54;;;;;;;31.57;15.30;;;2.80;99.90;;;1.42;76.57;100273.66;10401312;28;96477;-79
2022/01/27 19:13:57;;;;;;;30.03;13.97;;;3.10;99.90;;;1.73;74.68;100269.72;10400502;28;96655;-78
2022/01/27 19:19:00;;;;;;;28.17;13.23;;;3.40;99.90;;;1.95;73.02;100265.56;10399991;28;96632;-78
2022/01/27 19:24:07;;;;;;;28.33;13.43;;;3.70;99.90;;;2.11;72.09;100269.59;10380311;28;96755;-78
2022/01/27 19:29:31;;;;;;;29.27;13.83;;;3.80;99.90;;;2.25;70.92;100268.56;10410972;27;96622;-78
2022/01/27 19:34:36;;;;;;;25.07;13.07;;;4.00;99.90;;;2.43;69.45;100266.38;10404300;28;97674;-78
2022/01/27 19:39:39;;;;;;;27.13;13.07;;;4.20;99.90;;;2.54;68.24;100258.53;10375766;28;96698;-77
2022/01/27 19:44:42;;;;;;;23.37;11.70;;;4.30;99.90;;;2.72;66.15;100252.84;10413759;28;96446;-76
2022/01/27 19:49:45;;;;;;;26.13;11.60;;;4.40;99.90;;;2.88;65.15;100241.09;10415241;28;96597;-77
2022/01/27 19:54:49;;;;;;;23.13;11.53;;;4.60;98.60;;;3.02;64.67;100247.06;10418811;28;96570;-78
2022/01/27 19:59:52;;;;;;;25.03;11.57;;;4.70;98.00;;;3.16;63.26;100254.69;10406724;27;96889;-77
2022/01/27 20:05:00;;;;;;;27.97;13.13;;;4.90;96.60;;;3.24;62.82;100265.44;10426385;27;97896;-77
2022/01/27 20:10:04;;;;;;;24.70;11.97;;;5.00;95.40;;;3.33;62.06;100256.84;10390539;28;96624;-77
2022/01/27 20:15:07;;;;;;;27.40;12.07;;;5.00;94.90;;;3.43;61.80;100264.84;10385441;27;97104;-77
2022/01/27 20:20:10;;;;;;;23.40;11.67;;;5.10;94.00;;;3.49;61.68;100254.69;10375696;28;96981;-77
2022/01/27 20:25:14;;;;;;;23.20;11.20;;;5.20;93.70;;;3.53;61.30;100242.13;10396824;27;96569;-78
2022/01/27 20:30:18;;;;;;;22.67;11.93;;;5.20;93.30;;;3.56;61.53;100236.66;10395309;28;96653;-78
2022/01/27 20:35:21;;;;;;;25.40;12.13;;;5.30;92.90;;;3.55;61.47;100223.63;10382061;28;96585;-78
2022/01/27 20:40:24;;;;;;;25.63;12.90;;;5.30;92.90;;;3.56;61.67;100225.28;10376546;28;96667;-78
2022/01/27 20:45:28;;;;;;;26.90;13.77;;;5.30;92.50;;;3.54;61.76;100216.69;10378151;27;96562;-78
2022/01/27 20:50:31;;;;;;;27.53;12.20;;;5.30;92.70;;;3.51;62.12;100209.91;10411062;28;98350;-78
2022/01/27 20:55:34;;;;;;;27.27;12.53;;;5.30;92.80;;;3.48;62.42;100213.63;10375592;27;97018;-78
2022/01/27 21:00:41;;;;;;;23.40;11.37;;;5.20;93.00;;;3.44;62.64;100201.66;10391519;27;96620;-78
2022/01/27 21:05:44;;;;;;;22.33;11.57;;;5.20;93.00;;;3.43;63.15;100192.13;10393001;27;97421;-78
2022/01/27 21:10:47;;;;;;;18.33;9.60;;;5.20;93.30;;;3.44;63.51;100174.56;10398411;27;98422;-78
2022/01/27 21:15:50;;;;;;;20.87;9.57;;;5.20;93.60;;;3.44;63.78;100161.44;10400203;27;96861;-78
2022/01/27 21:20:54;;;;;;;23.47;11.57;;;5.10;93.90;;;3.37;64.26;100181.28;10382067;27;96799;-78
2022/01/27 21:25:57;;;;;;;28.00;12.70;;;5.10;94.30;;;3.26;65.04;100184.75;10409692;28;96517;-78
2022/01/27 21:31:00;;;;;;;26.13;12.47;;;5.00;94.70;;;3.12;66.12;100187.59;10392000;27;96509;-78
2022/01/27 21:36:04;;;;;;;25.10;11.83;;;4.90;95.50;;;2.99;67.22;100197.41;10376520;28;96473;-76
2022/01/27 21:41:07;;;;;;;27.27;13.07;;;4.80;96.20;;;2.91;67.40;100214.59;10393772;27;96581;-76
2022/01/27 21:46:12;;;;;;;28.33;13.80;;;4.70;97.00;;;2.90;68.25;100217.34;10395566;27;96672;-76
2022/01/27 21:51:15;;;;;;;25.17;12.23;;;4.60;97.90;;;2.91;68.83;100219.00;10394370;28;96523;-78
2022/01/27 21:56:18;;;;;;;26.77;12.90;;;4.60;98.60;;;2.88;69.56;100224.50;10363436;28;96561;-78
2022/01/27 22:01:21;;;;;;;25.67;13.33;;;4.60;99.30;;;2.83;70.01;100227.47;10415800;27;97191;-77